sensor_id;sensor_type;location;lat;lon;timestamp;pressure;altitude;pressure_sealevel;temperature;humidity
40592;BME280;26301;42.832;23.918;2023-12-07T00:01:15;92787.91;;;1.25;100.00
40592;BME280;26301;42.832;23.918;2023-12-07T00:03:41;92794.38;;;1.28;100.00
40592;BME280;26301;42.832;23.918;2023-12-07T00:06:06;92798.72;;;1.34;100.00
40592;BME280;26301;42.832;23.918;2023-12-07T00:08:32;92791.28;;;1.32;100.00
40592;BME280;26301;42.832;23.918;2023-12-07T00:10:58;92799.53;;;1.41;100.00
40592;BME280;26301;42.832;23.918;2023-12-07T00:13:24;92801.13;;;1.42;100.00
40592;BME280;26301;42.832;23.918;2023-12-07T00:15:49;92804.25;;;1.44;100.00
40592;BME280;26301;42.832;23.918;2023-12-07T00:18:15;92810.94;;;1.45;100.00
40592;BME280;26301;42.832;23.918;2023-12-07T00:20:41;92808.19;;;1.47;100.00
40592;BME280;26301;42.832;23.918;2023-12-07T00:23:06;92794.81;;;1.38;100.00
40592;BME280;26301;42.832;23.918;2023-12-07T00:25:32;92816.06;;;1.52;100.00
40592;BME280;26301;42.832;23.918;2023-12-07T00:27:59;92812.91;;;1.50;100.00
40592;BME280;26301;42.832;23.918;2023-12-07T00:30:25;92784.84;;;1.36;100.00
40592;BME280;26301;42.832;23.918;2023-12-07T00:32:50;92789.78;;;1.45;100.00
40592;BME280;26301;42.832;23.918;2023-12-07T00:35:16;92810.75;;;1.53;100.00
40592;BME280;26301;42.832;23.918;2023-12-07T00:37:43;92782.16;;;1.45;100.00
40592;BME280;26301;42.832;23.918;2023-12-07T00:40:10;92780.75;;;1.42;100.00
40592;BME280;26301;42.832;23.918;2023-12-07T00:42:36;92797.84;;;1.55;100.00
40592;BME280;26301;42.832;23.918;2023-12-07T00:45:03;92803.94;;;1.54;100.00
40592;BME280;26301;42.832;23.918;2023-12-07T00:47:29;92801.19;;;1.55;100.00
40592;BME280;26301;42.832;23.918;2023-12-07T00:49:54;92784.69;;;1.45;100.00
40592;BME280;26301;42.832;23.918;2023-12-07T00:52:20;92787.81;;;1.47;100.00
40592;BME280;26301;42.832;23.918;2023-12-07T00:54:46;92783.31;;;1.42;100.00
40592;BME280;26301;42.832;23.918;2023-12-07T00:57:11;92794.94;;;1.58;100.00
40592;BME280;26301;42.832;23.918;2023-12-07T00:59:37;92766.44;;;1.41;100.00
40592;BME280;26301;42.832;23.918;2023-12-07T01:02:04;92779.22;;;1.48;100.00
40592;BME280;26301;42.832;23.918;2023-12-07T01:04:30;92775.09;;;1.47;100.00
40592;BME280;26301;42.832;23.918;2023-12-07T01:06:57;92775.88;;;1.47;100.00
40592;BME280;26301;42.832;23.918;2023-12-07T01:09:22;92795.31;;;1.55;100.00
40592;BME280;26301;42.832;23.918;2023-12-07T01:11:49;92794.56;;;1.61;100.00
40592;BME280;26301;42.832;23.918;2023-12-07T01:14:16;92805.94;;;1.65;100.00
40592;BME280;26301;42.832;23.918;2023-12-07T01:16:42;92803.59;;;1.64;100.00
40592;BME280;26301;42.832;23.918;2023-12-07T01:19:08;92793.78;;;1.60;100.00
40592;BME280;26301;42.832;23.918;2023-12-07T01:21:34;92778.22;;;1.42;100.00
40592;BME280;26301;42.832;23.918;2023-12-07T01:23:59;92799.16;;;1.44;100.00
40592;BME280;26301;42.832;23.918;2023-12-07T01:26:25;92788.03;;;1.45;100.00
40592;BME280;26301;42.832;23.918;2023-12-07T01:28:51;92784.06;;;1.36;100.00
40592;BME280;26301;42.832;23.918;2023-12-07T01:31:17;92771.09;;;1.31;100.00
40592;BME280;26301;42.832;23.918;2023-12-07T01:33:43;92764.09;;;1.33;100.00
40592;BME280;26301;42.832;23.918;2023-12-07T01:36:10;92790.78;;;1.50;100.00
40592;BME280;26301;42.832;23.918;2023-12-07T01:38:36;92772.53;;;1.40;100.00
40592;BME280;26301;42.832;23.918;2023-12-07T01:41:02;92796.47;;;1.52;100.00
40592;BME280;26301;42.832;23.918;2023-12-07T01:43:28;92792.75;;;1.48;100.00
40592;BME280;26301;42.832;23.918;2023-12-07T01:45:55;92801.56;;;1.52;100.00
40592;BME280;26301;42.832;23.918;2023-12-07T01:48:23;92803.94;;;1.54;100.00
40592;BME280;26301;42.832;23.918;2023-12-07T01:50:49;92806.84;;;1.51;100.00
40592;BME280;26301;42.832;23.918;2023-12-07T01:53:16;92784.81;;;1.30;100.00
40592;BME280;26301;42.832;23.918;2023-12-07T01:55:42;92803.06;;;1.40;100.00
40592;BME280;26301;42.832;23.918;2023-12-07T01:58:08;92774.00;;;1.21;100.00
40592;BME280;26301;42.832;23.918;2023-12-07T02:00:35;92786.34;;;1.24;100.00
40592;BME280;26301;42.832;23.918;2023-12-07T02:03:04;92787.13;;;1.25;100.00
40592;BME280;26301;42.832;23.918;2023-12-07T02:05:31;92809.72;;;1.41;100.00
40592;BME280;26301;42.832;23.918;2023-12-07T02:07:57;92781.25;;;1.24;100.00
40592;BME280;26301;42.832;23.918;2023-12-07T02:10:24;92807.13;;;1.34;100.00
40592;BME280;26301;42.832;23.918;2023-12-07T02:12:51;92818.53;;;1.39;100.00
40592;BME280;26301;42.832;23.918;2023-12-07T02:15:18;92790.66;;;1.24;100.00
40592;BME280;26301;42.832;23.918;2023-12-07T02:20:55;92821.84;;;1.39;100.00
40592;BME280;26301;42.832;23.918;2023-12-07T02:23:25;92804.31;;;1.23;100.00
40592;BME280;26301;42.832;23.918;2023-12-07T02:25:54;92820.47;;;1.36;100.00
40592;BME280;26301;42.832;23.918;2023-12-07T02:28:20;92809.09;;;1.32;100.00
40592;BME280;26301;42.832;23.918;2023-12-07T02:30:46;92790.41;;;1.19;100.00
40592;BME280;26301;42.832;23.918;2023-12-07T02:33:12;92819.84;;;1.34;100.00
40592;BME280;26301;42.832;23.918;2023-12-07T02:35:38;92791.78;;;1.14;100.00
40592;BME280;26301;42.832;23.918;2023-12-07T02:38:06;92816.53;;;1.34;100.00
40592;BME280;26301;42.832;23.918;2023-12-07T02:40:32;92792.56;;;1.15;100.00
40592;BME280;26301;42.832;23.918;2023-12-07T02:42:59;92815.16;;;1.31;100.00
40592;BME280;26301;42.832;23.918;2023-12-07T02:45:25;92812.00;;;1.29;100.00
40592;BME280;26301;42.832;23.918;2023-12-07T02:47:52;92812.06;;;1.36;100.00
40592;BME280;26301;42.832;23.918;2023-12-07T02:50:20;92809.69;;;1.34;100.00
40592;BME280;26301;42.832;23.918;2023-12-07T02:52:46;92804.97;;;1.31;100.00
40592;BME280;26301;42.832;23.918;2023-12-07T02:55:12;92789.63;;;1.18;100.00
40592;BME280;26301;42.832;23.918;2023-12-07T02:57:38;92791.81;;;1.21;100.00
40592;BME280;26301;42.832;23.918;2023-12-07T03:00:05;92798.31;;;1.30;100.00
40592;BME280;26301;42.832;23.918;2023-12-07T03:02:35;92804.16;;;1.24;100.00
40592;BME280;26301;42.832;23.918;2023-12-07T03:05:01;92807.25;;;1.20;100.00
40592;BME280;26301;42.832;23.918;2023-12-07T03:07:27;92800.69;;;1.04;100.00
40592;BME280;26301;42.832;23.918;2023-12-07T03:09:52;92802.25;;;1.05;100.00
40592;BME280;26301;42.832;23.918;2023-12-07T03:12:18;92827.41;;;1.21;100.00
40592;BME280;26301;42.832;23.918;2023-12-07T03:14:44;92801.47;;;1.04;100.00
40592;BME280;26301;42.832;23.918;2023-12-07T03:17:10;92813.84;;;1.14;100.00
40592;BME280;26301;42.832;23.918;2023-12-07T03:19:39;92820.94;;;1.19;100.00
40592;BME280;26301;42.832;23.918;2023-12-07T03:22:05;92804.63;;;1.06;100.00
40592;BME280;26301;42.832;23.918;2023-12-07T03:24:35;92826.03;;;1.19;100.00
40592;BME280;26301;42.832;23.918;2023-12-07T03:27:02;92832.13;;;1.24;100.00
40592;BME280;26301;42.832;23.918;2023-12-07T03:29:28;92829.97;;;1.21;100.00
40592;BME280;26301;42.832;23.918;2023-12-07T03:31:54;92808.72;;;1.07;100.00
40592;BME280;26301;42.832;23.918;2023-12-07T03:34:20;92827.59;;;1.20;100.00
40592;BME280;26301;42.832;23.918;2023-12-07T03:36:46;92803.19;;;0.97;100.00
40592;BME280;26301;42.832;23.918;2023-12-07T03:39:16;92825.72;;;1.00;100.00
40592;BME280;26301;42.832;23.918;2023-12-07T03:41:44;92828.31;;;0.85;100.00
40592;BME280;26301;42.832;23.918;2023-12-07T03:44:10;92798.88;;;0.70;100.00
40592;BME280;26301;42.832;23.918;2023-12-07T03:46:35;92829.88;;;0.86;100.00
40592;BME280;26301;42.832;23.918;2023-12-07T03:49:01;92802.00;;;0.72;100.00
40592;BME280;26301;42.832;23.918;2023-12-07T03:51:27;92805.97;;;0.81;100.00
40592;BME280;26301;42.832;23.918;2023-12-07T03:53:54;92824.31;;;0.98;100.00
40592;BME280;26301;42.832;23.918;2023-12-07T03:56:27;92829.66;;;1.03;100.00
40592;BME280;26301;42.832;23.918;2023-12-07T03:58:54;92842.03;;;1.12;100.00
40592;BME280;26301;42.832;23.918;2023-12-07T04:01:23;92816.50;;;0.99;100.00
40592;BME280;26301;42.832;23.918;2023-12-07T04:03:53;92825.63;;;1.15;100.00
40592;BME280;26301;42.832;23.918;2023-12-07T04:06:23;92828.44;;;1.27;100.00
40592;BME280;26301;42.832;23.918;2023-12-07T04:08:50;92831.19;;;1.32;100.00
40592;BME280;26301;42.832;23.918;2023-12-07T04:11:16;92831.41;;;1.30;100.00
40592;BME280;26301;42.832;23.918;2023-12-07T04:13:42;92840.03;;;1.36;100.00
40592;BME280;26301;42.832;23.918;2023-12-07T04:16:09;92822.13;;;1.23;100.00
40592;BME280;26301;42.832;23.918;2023-12-07T04:18:35;92820.19;;;1.25;100.00
40592;BME280;26301;42.832;23.918;2023-12-07T04:21:01;92837.63;;;1.28;100.00
40592;BME280;26301;42.832;23.918;2023-12-07T04:23:27;92829.41;;;1.26;100.00
40592;BME280;26301;42.832;23.918;2023-12-07T04:25:52;92845.50;;;1.33;100.00
40592;BME280;26301;42.832;23.918;2023-12-07T04:28:18;92827.75;;;1.11;100.00
40592;BME280;26301;42.832;23.918;2023-12-07T04:30:44;92835.59;;;1.17;100.00
40592;BME280;26301;42.832;23.918;2023-12-07T04:33:09;92856.84;;;1.30;100.00
40592;BME280;26301;42.832;23.918;2023-12-07T04:35:35;92840.09;;;1.14;100.00
40592;BME280;26301;42.832;23.918;2023-12-07T04:38:01;92835.38;;;1.11;100.00
40592;BME280;26301;42.832;23.918;2023-12-07T04:40:27;92843.63;;;1.20;100.00
40592;BME280;26301;42.832;23.918;2023-12-07T04:42:53;92840.63;;;1.10;100.00
40592;BME280;26301;42.832;23.918;2023-12-07T04:45:19;92852.38;;;1.11;100.00
40592;BME280;26301;42.832;23.918;2023-12-07T04:47:45;92855.38;;;1.14;100.00
40592;BME280;26301;42.832;23.918;2023-12-07T04:50:12;92870.69;;;1.21;100.00
40592;BME280;26301;42.832;23.918;2023-12-07T04:52:38;92851.44;;;1.12;100.00
40592;BME280;26301;42.832;23.918;2023-12-07T04:55:05;92887.75;;;1.27;100.00
40592;BME280;26301;42.832;23.918;2023-12-07T04:57:34;92880.47;;;1.24;100.00
40592;BME280;26301;42.832;23.918;2023-12-07T05:00:00;92875.19;;;1.26;100.00
40592;BME280;26301;42.832;23.918;2023-12-07T05:02:25;92834.50;;;0.98;100.00
40592;BME280;26301;42.832;23.918;2023-12-07T05:04:53;92890.47;;;1.26;100.00
40592;BME280;26301;42.832;23.918;2023-12-07T05:07:19;92889.25;;;1.22;100.00
40592;BME280;26301;42.832;23.918;2023-12-07T05:09:46;92885.28;;;1.12;100.00
40592;BME280;26301;42.832;23.918;2023-12-07T05:12:12;92870.13;;;1.04;100.00
40592;BME280;26301;42.832;23.918;2023-12-07T05:14:38;92872.88;;;1.03;100.00
40592;BME280;26301;42.832;23.918;2023-12-07T05:17:04;92907.44;;;1.19;100.00
40592;BME280;26301;42.832;23.918;2023-12-07T05:19:30;92894.25;;;1.08;100.00
40592;BME280;26301;42.832;23.918;2023-12-07T05:21:56;92906.72;;;1.25;100.00
40592;BME280;26301;42.832;23.918;2023-12-07T05:24:22;92864.59;;;0.94;100.00
40592;BME280;26301;42.832;23.918;2023-12-07T05:26:47;92905.72;;;1.26;100.00
40592;BME280;26301;42.832;23.918;2023-12-07T05:29:15;92884.44;;;1.05;100.00
40592;BME280;26301;42.832;23.918;2023-12-07T05:31:40;92887.56;;;1.07;100.00
40592;BME280;26301;42.832;23.918;2023-12-07T05:34:09;92911.38;;;1.21;100.00
40592;BME280;26301;42.832;23.918;2023-12-07T05:36:35;92890.84;;;1.01;100.00
40592;BME280;26301;42.832;23.918;2023-12-07T05:39:01;92887.91;;;0.98;100.00
40592;BME280;26301;42.832;23.918;2023-12-07T05:41:26;92917.16;;;1.08;100.00
40592;BME280;26301;42.832;23.918;2023-12-07T05:43:52;92890.81;;;0.95;100.00
40592;BME280;26301;42.832;23.918;2023-12-07T05:46:19;92902.75;;;0.94;100.00
40592;BME280;26301;42.832;23.918;2023-12-07T05:48:45;92915.41;;;1.09;100.00
40592;BME280;26301;42.832;23.918;2023-12-07T05:51:17;92916.78;;;1.11;100.00
40592;BME280;26301;42.832;23.918;2023-12-07T05:53:44;92930.34;;;1.19;100.00
40592;BME280;26301;42.832;23.918;2023-12-07T05:56:10;92910.22;;;1.02;100.00
40592;BME280;26301;42.832;23.918;2023-12-07T05:58:37;92914.97;;;1.05;100.00
40592;BME280;26301;42.832;23.918;2023-12-07T06:01:02;92935.00;;;1.15;100.00
40592;BME280;26301;42.832;23.918;2023-12-07T06:03:29;92926.75;;;1.13;100.00
40592;BME280;26301;42.832;23.918;2023-12-07T06:05:54;92926.59;;;1.14;100.00
40592;BME280;26301;42.832;23.918;2023-12-07T06:08:21;92909.88;;;1.05;100.00
40592;BME280;26301;42.832;23.918;2023-12-07T06:10:47;92910.31;;;1.09;100.00
40592;BME280;26301;42.832;23.918;2023-12-07T06:13:13;92907.94;;;1.07;100.00
40592;BME280;26301;42.832;23.918;2023-12-07T06:15:39;92933.56;;;1.27;100.00
40592;BME280;26301;42.832;23.918;2023-12-07T06:18:05;92930.03;;;1.28;100.00
40592;BME280;26301;42.832;23.918;2023-12-07T06:20:31;92926.03;;;1.19;100.00
40592;BME280;26301;42.832;23.918;2023-12-07T06:22:57;92946.69;;;1.31;100.00
40592;BME280;26301;42.832;23.918;2023-12-07T06:25:23;92939.84;;;1.31;100.00
40592;BME280;26301;42.832;23.918;2023-12-07T06:27:49;92930.63;;;1.30;100.00
40592;BME280;26301;42.832;23.918;2023-12-07T06:30:15;92934.78;;;1.38;100.00
40592;BME280;26301;42.832;23.918;2023-12-07T06:32:41;92914.75;;;1.28;100.00
40592;BME280;26301;42.832;23.918;2023-12-07T06:35:08;92932.06;;;1.40;100.00
40592;BME280;26301;42.832;23.918;2023-12-07T06:37:33;92919.31;;;1.33;100.00
40592;BME280;26301;42.832;23.918;2023-12-07T06:40:00;92944.06;;;1.46;100.00
40592;BME280;26301;42.832;23.918;2023-12-07T06:42:26;92943.09;;;1.47;100.00
40592;BME280;26301;42.832;23.918;2023-12-07T06:44:52;92948.78;;;1.49;100.00
40592;BME280;26301;42.832;23.918;2023-12-07T06:47:18;92880.31;;;1.04;100.00
40592;BME280;26301;42.832;23.918;2023-12-07T06:49:44;92937.63;;;1.50;100.00
40592;BME280;26301;42.832;23.918;2023-12-07T06:52:13;92926.19;;;1.39;100.00
40592;BME280;26301;42.832;23.918;2023-12-07T06:54:39;92920.91;;;1.41;100.00
40592;BME280;26301;42.832;23.918;2023-12-07T06:57:05;92930.19;;;1.48;100.00
40592;BME280;26301;42.832;23.918;2023-12-07T06:59:32;92946.91;;;1.57;100.00
40592;BME280;26301;42.832;23.918;2023-12-07T07:01:59;92937.47;;;1.51;100.00
40592;BME280;26301;42.832;23.918;2023-12-07T07:04:24;92930.72;;;1.44;100.00
40592;BME280;26301;42.832;23.918;2023-12-07T07:06:50;92952.78;;;1.58;100.00
40592;BME280;26301;42.832;23.918;2023-12-07T07:09:17;92875.72;;;1.14;100.00
40592;BME280;26301;42.832;23.918;2023-12-07T07:11:47;92944.47;;;1.49;100.00
40592;BME280;26301;42.832;23.918;2023-12-07T07:14:13;92940.91;;;1.44;100.00
40592;BME280;26301;42.832;23.918;2023-12-07T07:16:39;92963.56;;;1.60;100.00
40592;BME280;26301;42.832;23.918;2023-12-07T07:19:05;92944.19;;;1.37;100.00
40592;BME280;26301;42.832;23.918;2023-12-07T07:21:31;92964.59;;;1.44;100.00
40592;BME280;26301;42.832;23.918;2023-12-07T07:23:57;92947.59;;;1.23;100.00
40592;BME280;26301;42.832;23.918;2023-12-07T07:26:22;92957.75;;;1.23;100.00
40592;BME280;26301;42.832;23.918;2023-12-07T07:28:51;92972.19;;;1.37;100.00
40592;BME280;26301;42.832;23.918;2023-12-07T07:31:17;92946.03;;;1.22;100.00
40592;BME280;26301;42.832;23.918;2023-12-07T07:33:43;92954.84;;;1.26;100.00
40592;BME280;26301;42.832;23.918;2023-12-07T07:36:09;92958.22;;;1.27;100.00
40592;BME280;26301;42.832;23.918;2023-12-07T07:38:36;92964.56;;;1.37;100.00
40592;BME280;26301;42.832;23.918;2023-12-07T07:41:02;92973.63;;;1.47;100.00
40592;BME280;26301;42.832;23.918;2023-12-07T07:43:28;92970.72;;;1.50;100.00
40592;BME280;26301;42.832;23.918;2023-12-07T07:45:54;92982.91;;;1.54;100.00
40592;BME280;26301;42.832;23.918;2023-12-07T07:48:20;92987.88;;;1.63;100.00
40592;BME280;26301;42.832;23.918;2023-12-07T07:50:46;92956.44;;;1.49;100.00
40592;BME280;26301;42.832;23.918;2023-12-07T07:53:11;92967.38;;;1.49;100.00
40592;BME280;26301;42.832;23.918;2023-12-07T07:55:37;92984.72;;;1.60;100.00
40592;BME280;26301;42.832;23.918;2023-12-07T07:58:03;92978.59;;;1.55;100.00
40592;BME280;26301;42.832;23.918;2023-12-07T08:00:29;92986.13;;;1.63;100.00
40592;BME280;26301;42.832;23.918;2023-12-07T08:02:56;92922.50;;;1.20;100.00
40592;BME280;26301;42.832;23.918;2023-12-07T08:05:22;92989.25;;;1.65;100.00
40592;BME280;26301;42.832;23.918;2023-12-07T08:07:47;93000.69;;;1.76;100.00
40592;BME280;26301;42.832;23.918;2023-12-07T08:10:13;92994.78;;;1.69;100.00
40592;BME280;26301;42.832;23.918;2023-12-07T08:12:39;92998.16;;;1.76;100.00
40592;BME280;26301;42.832;23.918;2023-12-07T08:15:06;92996.59;;;1.75;100.00
40592;BME280;26301;42.832;23.918;2023-12-07T08:17:42;92975.31;;;1.61;100.00
40592;BME280;26301;42.832;23.918;2023-12-07T08:20:09;93003.66;;;1.79;100.00
40592;BME280;26301;42.832;23.918;2023-12-07T08:22:38;92973.97;;;1.65;100.00
40592;BME280;26301;42.832;23.918;2023-12-07T08:25:04;92985.38;;;1.69;100.00
40592;BME280;26301;42.832;23.918;2023-12-07T08:27:33;92974.69;;;1.59;100.00
40592;BME280;26301;42.832;23.918;2023-12-07T08:30:00;92984.16;;;1.65;100.00
40592;BME280;26301;42.832;23.918;2023-12-07T08:32:26;92974.78;;;1.66;100.00
40592;BME280;26301;42.832;23.918;2023-12-07T08:34:53;93000.94;;;1.81;100.00
40592;BME280;26301;42.832;23.918;2023-12-07T08:37:18;93010.78;;;1.91;100.00
40592;BME280;26301;42.832;23.918;2023-12-07T08:39:45;92983.91;;;1.81;100.00
40592;BME280;26301;42.832;23.918;2023-12-07T08:42:11;93000.25;;;1.94;100.00
40592;BME280;26301;42.832;23.918;2023-12-07T08:44:37;92997.69;;;1.94;100.00
40592;BME280;26301;42.832;23.918;2023-12-07T08:47:03;93007.63;;;1.89;100.00
40592;BME280;26301;42.832;23.918;2023-12-07T08:49:29;93008.94;;;1.78;100.00
40592;BME280;26301;42.832;23.918;2023-12-07T08:51:55;93009.69;;;1.72;100.00
40592;BME280;26301;42.832;23.918;2023-12-07T08:54:21;93009.97;;;1.62;100.00
40592;BME280;26301;42.832;23.918;2023-12-07T08:56:47;93007.88;;;1.66;100.00
40592;BME280;26301;42.832;23.918;2023-12-07T08:59:13;92994.84;;;1.54;100.00
40592;BME280;26301;42.832;23.918;2023-12-07T09:01:39;92997.56;;;1.52;100.00
40592;BME280;26301;42.832;23.918;2023-12-07T09:04:05;92990.91;;;1.51;100.00
40592;BME280;26301;42.832;23.918;2023-12-07T09:06:32;92993.56;;;1.65;100.00
40592;BME280;26301;42.832;23.918;2023-12-07T09:08:58;92976.59;;;1.50;100.00
40592;BME280;26301;42.832;23.918;2023-12-07T09:11:25;92984.47;;;1.55;100.00
40592;BME280;26301;42.832;23.918;2023-12-07T09:13:50;92983.56;;;1.63;100.00
40592;BME280;26301;42.832;23.918;2023-12-07T09:16:16;92979.06;;;1.65;100.00
40592;BME280;26301;42.832;23.918;2023-12-07T09:18:42;92983.97;;;1.67;100.00
40592;BME280;26301;42.832;23.918;2023-12-07T09:21:10;92984.22;;;1.72;100.00
40592;BME280;26301;42.832;23.918;2023-12-07T09:23:36;93003.31;;;1.89;100.00
40592;BME280;26301;42.832;23.918;2023-12-07T09:26:03;93001.75;;;1.88;100.00
40592;BME280;26301;42.832;23.918;2023-12-07T09:28:29;93003.31;;;1.89;100.00
40592;BME280;26301;42.832;23.918;2023-12-07T09:30:54;92989.81;;;1.89;100.00
40592;BME280;26301;42.832;23.918;2023-12-07T09:33:21;92965.59;;;1.71;100.00
40592;BME280;26301;42.832;23.918;2023-12-07T09:35:46;92974.66;;;1.80;100.00
40592;BME280;26301;42.832;23.918;2023-12-07T09:38:12;92987.09;;;1.90;100.00
40592;BME280;26301;42.832;23.918;2023-12-07T09:40:38;92955.63;;;1.76;100.00
40592;BME280;26301;42.832;23.918;2023-12-07T09:43:04;92986.09;;;1.91;100.00
40592;BME280;26301;42.832;23.918;2023-12-07T09:45:30;92967.66;;;1.89;100.00
40592;BME280;26301;42.832;23.918;2023-12-07T09:47:56;92984.00;;;2.01;100.00
40592;BME280;26301;42.832;23.918;2023-12-07T09:50:24;92959.06;;;1.90;100.00
40592;BME280;26301;42.832;23.918;2023-12-07T09:52:51;92985.50;;;2.17;100.00
40592;BME280;26301;42.832;23.918;2023-12-07T09:55:18;92954.63;;;1.99;100.00
40592;BME280;26301;42.832;23.918;2023-12-07T09:57:45;92957.97;;;2.06;100.00
40592;BME280;26301;42.832;23.918;2023-12-07T10:00:12;92950.13;;;2.08;100.00
40592;BME280;26301;42.832;23.918;2023-12-07T10:02:41;92980.56;;;2.16;100.00
40592;BME280;26301;42.832;23.918;2023-12-07T10:05:09;92961.31;;;2.06;100.00
40592;BME280;26301;42.832;23.918;2023-12-07T10:07:40;92964.44;;;2.02;100.00
40592;BME280;26301;42.832;23.918;2023-12-07T10:10:07;92984.75;;;2.23;100.00
40592;BME280;26301;42.832;23.918;2023-12-07T10:12:34;92982.00;;;2.25;100.00
40592;BME280;26301;42.832;23.918;2023-12-07T10:15:01;92964.25;;;2.10;100.00
40592;BME280;26301;42.832;23.918;2023-12-07T10:17:55;92980.03;;;2.20;100.00
40592;BME280;26301;42.832;23.918;2023-12-07T10:20:23;92981.56;;;2.15;100.00
40592;BME280;26301;42.832;23.918;2023-12-07T10:23:10;92980.41;;;2.17;100.00
40592;BME280;26301;42.832;23.918;2023-12-07T10:25:38;92975.13;;;2.25;100.00
40592;BME280;26301;42.832;23.918;2023-12-07T10:28:04;92967.06;;;2.15;100.00
40592;BME280;26301;42.832;23.918;2023-12-07T10:30:33;92960.53;;;2.06;100.00
40592;BME280;26301;42.832;23.918;2023-12-07T10:32:59;92973.91;;;2.15;100.00
40592;BME280;26301;42.832;23.918;2023-12-07T10:35:25;92946.78;;;2.00;100.00
40592;BME280;26301;42.832;23.918;2023-12-07T10:37:51;92972.34;;;2.14;100.00
40592;BME280;26301;42.832;23.918;2023-12-07T10:40:17;92972.28;;;2.07;100.00
40592;BME280;26301;42.832;23.918;2023-12-07T10:42:48;92969.34;;;2.03;100.00
40592;BME280;26301;42.832;23.918;2023-12-07T10:45:15;92947.72;;;1.93;100.00
40592;BME280;26301;42.832;23.918;2023-12-07T10:47:43;92977.00;;;2.10;100.00
40592;BME280;26301;42.832;23.918;2023-12-07T10:50:10;92959.28;;;1.95;100.00
40592;BME280;26301;42.832;23.918;2023-12-07T10:52:54;92975.28;;;2.11;100.00
40592;BME280;26301;42.832;23.918;2023-12-07T10:55:21;92982.44;;;2.00;100.00
40592;BME280;26301;42.832;23.918;2023-12-07T10:57:52;92978.34;;;1.99;100.00
40592;BME280;26301;42.832;23.918;2023-12-07T11:00:20;92980.50;;;2.02;100.00
40592;BME280;26301;42.832;23.918;2023-12-07T11:02:50;92959.81;;;1.84;100.00
40592;BME280;26301;42.832;23.918;2023-12-07T11:05:17;92960.59;;;1.85;100.00
40592;BME280;26301;42.832;23.918;2023-12-07T11:07:54;92984.25;;;2.06;100.00
40592;BME280;26301;42.832;23.918;2023-12-07T11:10:45;92963.78;;;1.93;100.00
40592;BME280;26301;42.832;23.918;2023-12-07T11:13:27;92982.28;;;2.02;100.00
40592;BME280;26301;42.832;23.918;2023-12-07T11:15:55;92954.66;;;1.77;100.00
40592;BME280;26301;42.832;23.918;2023-12-07T11:18:25;92990.41;;;1.91;100.00
40592;BME280;26301;42.832;23.918;2023-12-07T11:20:50;92995.09;;;1.87;100.00
40592;BME280;26301;42.832;23.918;2023-12-07T11:23:18;92985.09;;;1.86;100.00
40592;BME280;26301;42.832;23.918;2023-12-07T11:25:45;92989.00;;;1.81;100.00
40592;BME280;26301;42.832;23.918;2023-12-07T11:28:11;92958.69;;;1.65;100.00
40592;BME280;26301;42.832;23.918;2023-12-07T11:30:38;92995.00;;;1.74;100.00
40592;BME280;26301;42.832;23.918;2023-12-07T11:33:06;92970.84;;;1.63;100.00
40592;BME280;26301;42.832;23.918;2023-12-07T11:35:33;92973.00;;;1.66;100.00
40592;BME280;26301;42.832;23.918;2023-12-07T11:40:30;92986.19;;;1.76;100.00
40592;BME280;26301;42.832;23.918;2023-12-07T11:42:58;92981.09;;;1.76;100.00
40592;BME280;26301;42.832;23.918;2023-12-07T11:45:48;92981.72;;;1.78;100.00
40592;BME280;26301;42.832;23.918;2023-12-07T11:48:15;92977.56;;;1.77;100.00
40592;BME280;26301;42.832;23.918;2023-12-07T11:53:26;92978.44;;;1.85;100.00
40592;BME280;26301;42.832;23.918;2023-12-07T11:55:54;92965.97;;;1.68;100.00
40592;BME280;26301;42.832;23.918;2023-12-07T11:58:21;92985.22;;;1.77;100.00
40592;BME280;26301;42.832;23.918;2023-12-07T12:00:47;92986.63;;;1.80;100.00
40592;BME280;26301;42.832;23.918;2023-12-07T12:03:13;92991.53;;;1.81;100.00
40592;BME280;26301;42.832;23.918;2023-12-07T12:05:41;92972.97;;;1.59;100.00
40592;BME280;26301;42.832;23.918;2023-12-07T12:08:07;92979.22;;;1.57;100.00
40592;BME280;26301;42.832;23.918;2023-12-07T12:10:33;92991.13;;;1.56;100.00
40592;BME280;26301;42.832;23.918;2023-12-07T12:13:02;92950.69;;;1.40;100.00
40592;BME280;26301;42.832;23.918;2023-12-07T12:15:31;92957.31;;;1.41;100.00
40592;BME280;26301;42.832;23.918;2023-12-07T12:17:57;92959.66;;;1.36;100.00
40592;BME280;26301;42.832;23.918;2023-12-07T12:20:26;92962.41;;;1.41;100.00
40592;BME280;26301;42.832;23.918;2023-12-07T12:22:53;92976.00;;;1.48;100.00
40592;BME280;26301;42.832;23.918;2023-12-07T12:25:23;92984.66;;;1.54;100.00
40592;BME280;26301;42.832;23.918;2023-12-07T12:28:03;92976.31;;;1.39;100.00
40592;BME280;26301;42.832;23.918;2023-12-07T12:30:29;92983.59;;;1.42;100.00
40592;BME280;26301;42.832;23.918;2023-12-07T12:32:56;92981.16;;;1.33;100.00
40592;BME280;26301;42.832;23.918;2023-12-07T12:35:23;92980.59;;;1.38;100.00
40592;BME280;26301;42.832;23.918;2023-12-07T12:37:49;92977.47;;;1.36;100.00
40592;BME280;26301;42.832;23.918;2023-12-07T12:40:17;92979.66;;;1.39;100.00
40592;BME280;26301;42.832;23.918;2023-12-07T12:42:48;92983.81;;;1.47;100.00
40592;BME280;26301;42.832;23.918;2023-12-07T12:45:15;92916.13;;;1.03;100.00
40592;BME280;26301;42.832;23.918;2023-12-07T12:47:42;92989.75;;;1.54;100.00
40592;BME280;26301;42.832;23.918;2023-12-07T12:50:11;92994.41;;;1.50;100.00
40592;BME280;26301;42.832;23.918;2023-12-07T12:52:40;92998.75;;;1.56;100.00
40592;BME280;26301;42.832;23.918;2023-12-07T12:55:14;92969.41;;;1.32;100.00
40592;BME280;26301;42.832;23.918;2023-12-07T12:57:40;92982.72;;;1.34;100.00